sensor_id;sensor_type;location;lat;lon;timestamp;pressure;altitude;pressure_sealevel;temperature;humidity
28008;BME280;15333;50.010;20.020;2023-06-26T00:25:22;98815.69;;;15.70;100.00
28008;BME280;15333;50.010;20.020;2023-06-26T00:28:23;98822.22;;;15.58;100.00
28008;BME280;15333;50.010;20.020;2023-06-26T00:31:24;98817.53;;;15.60;100.00
28008;BME280;15333;50.010;20.020;2023-06-26T00:34:25;98819.25;;;15.61;100.00
28008;BME280;15333;50.010;20.020;2023-06-26T00:37:26;98821.75;;;15.72;100.00
28008;BME280;15333;50.010;20.020;2023-06-26T00:40:27;98819.06;;;15.72;100.00
28008;BME280;15333;50.010;20.020;2023-06-26T00:43:28;98823.47;;;15.73;100.00
28008;BME280;15333;50.010;20.020;2023-06-26T00:46:29;98819.47;;;15.77;100.00
28008;BME280;15333;50.010;20.020;2023-06-26T00:49:30;98817.19;;;15.82;100.00
28008;BME280;15333;50.010;20.020;2023-06-26T00:52:31;98813.78;;;15.80;100.00
28008;BME280;15333;50.010;20.020;2023-06-26T00:55:34;98814.09;;;15.77;100.00
28008;BME280;15333;50.010;20.020;2023-06-26T00:58:37;98811.06;;;15.80;100.00
28008;BME280;15333;50.010;20.020;2023-06-26T01:01:37;98811.06;;;15.80;100.00
28008;BME280;15333;50.010;20.020;2023-06-26T01:04:38;98814.09;;;15.77;100.00
28008;BME280;15333;50.010;20.020;2023-06-26T01:07:48;98809.81;;;15.75;100.00
28008;BME280;15333;50.010;20.020;2023-06-26T01:10:49;98813.06;;;15.78;100.00
28008;BME280;15333;50.010;20.020;2023-06-26T01:13:51;98810.97;;;15.72;100.00
28008;BME280;15333;50.010;20.020;2023-06-26T01:16:54;98811.53;;;15.76;100.00
28008;BME280;15333;50.010;20.020;2023-06-26T01:20:05;98807.25;;;15.73;100.00
28008;BME280;15333;50.010;20.020;2023-06-26T01:23:24;98800.47;;;15.69;100.00
28008;BME280;15333;50.010;20.020;2023-06-26T01:26:29;98804.75;;;15.62;100.00
28008;BME280;15333;50.010;20.020;2023-06-26T01:29:32;98799.66;;;15.59;100.00
28008;BME280;15333;50.010;20.020;2023-06-26T01:32:34;98798.66;;;15.60;100.00
28008;BME280;15333;50.010;20.020;2023-06-26T01:35:35;98802.75;;;15.64;100.00
28008;BME280;15333;50.010;20.020;2023-06-26T01:38:39;98805.03;;;15.59;100.00
28008;BME280;15333;50.010;20.020;2023-06-26T01:41:41;98792.66;;;15.66;100.00
28008;BME280;15333;50.010;20.020;2023-06-26T01:44:45;98795.97;;;15.60;100.00
28008;BME280;15333;50.010;20.020;2023-06-26T01:47:49;98794.97;;;15.61;100.00
28008;BME280;15333;50.010;20.020;2023-06-26T01:50:53;98795.69;;;15.63;100.00
28008;BME280;15333;50.010;20.020;2023-06-26T01:53:56;98786.88;;;15.61;100.00
28008;BME280;15333;50.010;20.020;2023-06-26T01:56:59;98789.44;;;15.62;100.00
28008;BME280;15333;50.010;20.020;2023-06-26T02:00:02;98789.16;;;15.56;100.00
28008;BME280;15333;50.010;20.020;2023-06-26T02:03:14;98785.44;;;15.57;100.00
28008;BME280;15333;50.010;20.020;2023-06-26T02:06:15;98784.06;;;15.53;100.00
28008;BME280;15333;50.010;20.020;2023-06-26T02:09:16;98792.69;;;15.56;100.00
28008;BME280;15333;50.010;20.020;2023-06-26T02:12:18;98796.56;;;15.54;100.00
28008;BME280;15333;50.010;20.020;2023-06-26T02:15:19;98791.16;;;15.54;100.00
28008;BME280;15333;50.010;20.020;2023-06-26T02:18:20;98786.31;;;15.48;100.00
28008;BME280;15333;50.010;20.020;2023-06-26T02:21:24;98777.53;;;15.36;100.00
28008;BME280;15333;50.010;20.020;2023-06-26T02:24:25;98780.38;;;15.35;100.00
28008;BME280;15333;50.010;20.020;2023-06-26T02:27:32;98785.75;;;15.35;100.00
28008;BME280;15333;50.010;20.020;2023-06-26T02:30:33;98782.94;;;15.36;100.00
28008;BME280;15333;50.010;20.020;2023-06-26T02:33:34;98781.09;;;15.37;100.00
28008;BME280;15333;50.010;20.020;2023-06-26T02:36:35;98790.88;;;15.38;100.00
28008;BME280;15333;50.010;20.020;2023-06-26T02:39:39;98790.28;;;15.44;100.00
28008;BME280;15333;50.010;20.020;2023-06-26T02:42:43;98788.19;;;15.38;100.00
28008;BME280;15333;50.010;20.020;2023-06-26T02:45:44;98786.06;;;15.32;100.00
28008;BME280;15333;50.010;20.020;2023-06-26T02:48:45;98789.63;;;15.32;100.00
28008;BME280;15333;50.010;20.020;2023-06-26T02:51:46;98786.34;;;15.28;100.00
28008;BME280;15333;50.010;20.020;2023-06-26T02:54:54;98786.06;;;15.32;100.00
28008;BME280;15333;50.010;20.020;2023-06-26T02:57:54;98789.19;;;15.37;100.00
28008;BME280;15333;50.010;20.020;2023-06-26T03:00:57;98791.28;;;15.43;100.00
28008;BME280;15333;50.010;20.020;2023-06-26T03:03:58;98790.00;;;15.47;100.00
28008;BME280;15333;50.010;20.020;2023-06-26T03:07:02;98795.41;;;15.47;100.00
28008;BME280;15333;50.010;20.020;2023-06-26T03:10:03;98788.03;;;15.86;100.00
28008;BME280;15333;50.010;20.020;2023-06-26T03:13:06;98786.63;;;16.54;100.00
28008;BME280;15333;50.010;20.020;2023-06-26T03:16:07;98792.75;;;17.09;95.25
28008;BME280;15333;50.010;20.020;2023-06-26T03:19:08;98783.66;;;17.62;89.57
28008;BME280;15333;50.010;20.020;2023-06-26T03:22:29;98791.13;;;18.02;87.00
28008;BME280;15333;50.010;20.020;2023-06-26T03:25:30;98787.22;;;18.38;82.94
28008;BME280;15333;50.010;20.020;2023-06-26T03:29:00;98790.38;;;19.00;80.07
28008;BME280;15333;50.010;20.020;2023-06-26T03:32:02;98787.66;;;19.00;78.06
28008;BME280;15333;50.010;20.020;2023-06-26T03:35:03;98784.44;;;19.05;78.06
28008;BME280;15333;50.010;20.020;2023-06-26T03:38:05;98783.00;;;19.82;74.02
28008;BME280;15333;50.010;20.020;2023-06-26T03:41:07;98787.16;;;20.01;72.46
28008;BME280;15333;50.010;20.020;2023-06-26T03:44:08;98787.09;;;20.17;70.78
28008;BME280;15333;50.010;20.020;2023-06-26T03:47:16;98794.44;;;20.47;69.83
28008;BME280;15333;50.010;20.020;2023-06-26T03:50:18;98791.41;;;20.42;69.95
28008;BME280;15333;50.010;20.020;2023-06-26T03:53:19;98791.28;;;20.89;67.25
28008;BME280;15333;50.010;20.020;2023-06-26T03:56:20;98788.09;;;21.31;65.79
28008;BME280;15333;50.010;20.020;2023-06-26T03:59:23;98797.38;;;20.91;67.19
28008;BME280;15333;50.010;20.020;2023-06-26T04:02:24;98794.47;;;20.70;67.00
28008;BME280;15333;50.010;20.020;2023-06-26T04:05:25;98795.31;;;21.39;65.36
28008;BME280;15333;50.010;20.020;2023-06-26T04:08:26;98803.91;;;21.51;64.46
28008;BME280;15333;50.010;20.020;2023-06-26T04:11:27;98802.97;;;21.21;65.32
28008;BME280;15333;50.010;20.020;2023-06-26T04:14:28;98804.34;;;20.94;65.72
28008;BME280;15333;50.010;20.020;2023-06-26T04:17:29;98807.44;;;21.36;65.29
28008;BME280;15333;50.010;20.020;2023-06-26T04:20:30;98812.13;;;20.97;65.94
28008;BME280;15333;50.010;20.020;2023-06-26T04:23:31;98805.81;;;21.27;65.34
28008;BME280;15333;50.010;20.020;2023-06-26T04:26:32;98806.56;;;21.13;65.20
28008;BME280;15333;50.010;20.020;2023-06-26T04:29:33;98805.09;;;22.00;63.17
28008;BME280;15333;50.010;20.020;2023-06-26T04:32:34;98809.28;;;21.73;63.29
28008;BME280;15333;50.010;20.020;2023-06-26T04:35:35;98809.13;;;22.34;61.99
28008;BME280;15333;50.010;20.020;2023-06-26T04:38:37;98806.19;;;22.35;62.22
28008;BME280;15333;50.010;20.020;2023-06-26T04:41:38;98817.13;;;22.20;61.05
28008;BME280;15333;50.010;20.020;2023-06-26T04:44:39;98811.19;;;22.82;58.95
28008;BME280;15333;50.010;20.020;2023-06-26T04:47:41;98812.81;;;22.77;59.31
28008;BME280;15333;50.010;20.020;2023-06-26T04:50:42;98806.28;;;22.92;59.57
28008;BME280;15333;50.010;20.020;2023-06-26T04:53:43;98810.41;;;23.31;58.71
28008;BME280;15333;50.010;20.020;2023-06-26T04:56:44;98808.56;;;23.59;57.92
28008;BME280;15333;50.010;20.020;2023-06-26T04:59:47;98815.88;;;23.31;57.62
28008;BME280;15333;50.010;20.020;2023-06-26T05:02:48;98808.22;;;24.31;55.34
28008;BME280;15333;50.010;20.020;2023-06-26T05:05:49;98811.53;;;22.94;58.79
28008;BME280;15333;50.010;20.020;2023-06-26T05:08:51;98812.38;;;22.73;58.96
28008;BME280;15333;50.010;20.020;2023-06-26T05:11:51;98803.28;;;23.51;58.00
28008;BME280;15333;50.010;20.020;2023-06-26T05:14:53;98801.16;;;24.43;55.18
28008;BME280;15333;50.010;20.020;2023-06-26T05:17:53;98810.28;;;25.70;51.90
28008;BME280;15333;50.010;20.020;2023-06-26T05:20:54;98808.69;;;23.72;56.26
28008;BME280;15333;50.010;20.020;2023-06-26T05:23:57;98809.97;;;24.11;55.05
28008;BME280;15333;50.010;20.020;2023-06-26T05:26:59;98803.03;;;24.97;53.29
28008;BME280;15333;50.010;20.020;2023-06-26T05:30:00;98808.56;;;25.56;51.29
28008;BME280;15333;50.010;20.020;2023-06-26T05:33:01;98810.63;;;25.08;53.03
28008;BME280;15333;50.010;20.020;2023-06-26T05:36:04;98813.88;;;24.71;53.29
28008;BME280;15333;50.010;20.020;2023-06-26T05:39:06;98816.00;;;23.93;55.81
28008;BME280;15333;50.010;20.020;2023-06-26T05:42:07;98804.63;;;23.96;55.47
28008;BME280;15333;50.010;20.020;2023-06-26T05:45:09;98814.56;;;23.69;57.84
28008;BME280;15333;50.010;20.020;2023-06-26T05:48:10;98811.78;;;24.25;55.60
28008;BME280;15333;50.010;20.020;2023-06-26T05:51:12;98807.84;;;23.72;55.83
28008;BME280;15333;50.010;20.020;2023-06-26T05:54:13;98809.53;;;24.35;54.15
28008;BME280;15333;50.010;20.020;2023-06-26T05:57:15;98801.97;;;24.98;52.86
28008;BME280;15333;50.010;20.020;2023-06-26T06:00:16;98803.09;;;25.43;52.52
28008;BME280;15333;50.010;20.020;2023-06-26T06:03:17;98810.03;;;25.65;51.41
28008;BME280;15333;50.010;20.020;2023-06-26T06:06:18;98811.50;;;25.42;51.60
28008;BME280;15333;50.010;20.020;2023-06-26T06:09:19;98807.28;;;25.32;51.37
28008;BME280;15333;50.010;20.020;2023-06-26T06:12:20;98804.97;;;24.55;52.81
28008;BME280;15333;50.010;20.020;2023-06-26T06:15:21;98801.03;;;24.65;52.91
28008;BME280;15333;50.010;20.020;2023-06-26T06:18:22;98806.13;;;23.43;56.96
28008;BME280;15333;50.010;20.020;2023-06-26T06:21:23;98815.34;;;22.27;61.43
28008;BME280;15333;50.010;20.020;2023-06-26T06:24:24;98811.44;;;21.78;65.10
28008;BME280;15333;50.010;20.020;2023-06-26T06:27:25;98815.41;;;21.15;63.75
28008;BME280;15333;50.010;20.020;2023-06-26T06:30:26;98807.56;;;21.20;64.20
28008;BME280;15333;50.010;20.020;2023-06-26T06:33:27;98807.09;;;21.17;64.31
28008;BME280;15333;50.010;20.020;2023-06-26T06:36:28;98799.31;;;20.83;64.62
28008;BME280;15333;50.010;20.020;2023-06-26T06:39:29;98810.44;;;21.41;64.29
28008;BME280;15333;50.010;20.020;2023-06-26T06:42:30;98800.81;;;21.16;65.12
28008;BME280;15333;50.010;20.020;2023-06-26T06:45:31;98801.78;;;21.23;62.17
28008;BME280;15333;50.010;20.020;2023-06-26T06:48:32;98803.53;;;21.16;63.37
28008;BME280;15333;50.010;20.020;2023-06-26T06:51:33;98800.00;;;21.30;63.07
28008;BME280;15333;50.010;20.020;2023-06-26T06:54:53;98800.28;;;21.13;61.12
28008;BME280;15333;50.010;20.020;2023-06-26T06:57:55;98803.63;;;21.45;62.02
28008;BME280;15333;50.010;20.020;2023-06-26T07:00:55;98804.59;;;21.82;60.96
28008;BME280;15333;50.010;20.020;2023-06-26T07:03:57;98803.47;;;21.91;59.86
28008;BME280;15333;50.010;20.020;2023-06-26T07:06:58;98809.63;;;22.08;59.88
28008;BME280;15333;50.010;20.020;2023-06-26T07:10:01;98814.50;;;22.12;60.49
28008;BME280;15333;50.010;20.020;2023-06-26T07:13:02;98809.38;;;22.39;59.56
28008;BME280;15333;50.010;20.020;2023-06-26T07:16:03;98805.09;;;22.30;59.39
28008;BME280;15333;50.010;20.020;2023-06-26T07:19:04;98810.38;;;22.02;60.45
28008;BME280;15333;50.010;20.020;2023-06-26T07:22:05;98807.16;;;22.27;59.88
28008;BME280;15333;50.010;20.020;2023-06-26T07:25:06;98803.00;;;22.17;59.62
28008;BME280;15333;50.010;20.020;2023-06-26T07:28:11;98800.09;;;22.33;59.56
28008;BME280;15333;50.010;20.020;2023-06-26T07:31:12;98803.06;;;22.38;59.71
28008;BME280;15333;50.010;20.020;2023-06-26T07:34:13;98804.63;;;22.62;59.02
28008;BME280;15333;50.010;20.020;2023-06-26T07:37:14;98793.78;;;22.83;58.97
28008;BME280;15333;50.010;20.020;2023-06-26T07:40:15;98802.16;;;23.03;57.75
28008;BME280;15333;50.010;20.020;2023-06-26T07:43:18;98790.66;;;23.29;57.45
28008;BME280;15333;50.010;20.020;2023-06-26T07:46:19;98790.41;;;23.02;56.13
28008;BME280;15333;50.010;20.020;2023-06-26T07:49:19;98797.31;;;22.98;54.63
28008;BME280;15333;50.010;20.020;2023-06-26T07:52:20;98799.13;;;23.13;56.17
28008;BME280;15333;50.010;20.020;2023-06-26T07:55:21;98802.69;;;23.13;55.09
28008;BME280;15333;50.010;20.020;2023-06-26T07:58:22;98794.44;;;23.49;52.82
28008;BME280;15333;50.010;20.020;2023-06-26T08:01:24;98794.03;;;23.52;52.88
28008;BME280;15333;50.010;20.020;2023-06-26T08:04:27;98797.78;;;23.72;53.28
28008;BME280;15333;50.010;20.020;2023-06-26T08:07:28;98797.41;;;23.33;51.67
28008;BME280;15333;50.010;20.020;2023-06-26T08:10:29;98798.06;;;23.56;49.07
28008;BME280;15333;50.010;20.020;2023-06-26T08:13:31;98791.78;;;23.62;49.17
28008;BME280;15333;50.010;20.020;2023-06-26T08:16:32;98786.03;;;23.78;48.92
28008;BME280;15333;50.010;20.020;2023-06-26T08:19:33;98785.38;;;24.11;49.21
28008;BME280;15333;50.010;20.020;2023-06-26T08:22:34;98788.06;;;24.39;49.86
28008;BME280;15333;50.010;20.020;2023-06-26T08:25:35;98782.63;;;24.52;49.45
28008;BME280;15333;50.010;20.020;2023-06-26T08:28:36;98782.56;;;24.32;47.28
28008;BME280;15333;50.010;20.020;2023-06-26T08:31:37;98786.25;;;24.18;45.29
28008;BME280;15333;50.010;20.020;2023-06-26T08:34:39;98779.59;;;24.27;44.10
28008;BME280;15333;50.010;20.020;2023-06-26T08:37:40;98779.75;;;24.19;46.20
28008;BME280;15333;50.010;20.020;2023-06-26T08:40:41;98785.31;;;23.98;47.59
28008;BME280;15333;50.010;20.020;2023-06-26T08:43:42;98775.38;;;24.25;47.39
28008;BME280;15333;50.010;20.020;2023-06-26T08:46:43;98773.81;;;24.56;46.12
28008;BME280;15333;50.010;20.020;2023-06-26T08:49:53;98772.19;;;24.75;45.99
28008;BME280;15333;50.010;20.020;2023-06-26T08:56:06;98771.44;;;24.40;43.70
28008;BME280;15333;50.010;20.020;2023-06-26T08:59:08;98773.81;;;24.56;42.79
28008;BME280;15333;50.010;20.020;2023-06-26T09:02:13;98774.03;;;24.55;42.47
28008;BME280;15333;50.010;20.020;2023-06-26T09:05:15;98761.91;;;24.84;43.49
28008;BME280;15333;50.010;20.020;2023-06-26T09:08:15;98761.72;;;24.92;42.93
28008;BME280;15333;50.010;20.020;2023-06-26T09:11:17;98768.16;;;24.65;43.42
28008;BME280;15333;50.010;20.020;2023-06-26T09:14:17;98770.44;;;24.54;41.76
28008;BME280;15333;50.010;20.020;2023-06-26T09:17:18;98762.31;;;24.20;42.08
28008;BME280;15333;50.010;20.020;2023-06-26T09:20:19;98761.56;;;24.05;42.94
28008;BME280;15333;50.010;20.020;2023-06-26T09:23:21;98757.09;;;23.91;42.76
28008;BME280;15333;50.010;20.020;2023-06-26T09:26:22;98758.53;;;24.21;42.89
28008;BME280;15333;50.010;20.020;2023-06-26T09:29:23;98759.34;;;24.76;42.69
28008;BME280;15333;50.010;20.020;2023-06-26T09:32:24;98764.47;;;24.99;42.33
28008;BME280;15333;50.010;20.020;2023-06-26T09:35:27;98747.84;;;25.40;41.32
28008;BME280;15333;50.010;20.020;2023-06-26T09:38:27;98749.94;;;25.31;41.60
28008;BME280;15333;50.010;20.020;2023-06-26T09:41:28;98753.31;;;25.53;41.29
28008;BME280;15333;50.010;20.020;2023-06-26T09:44:31;98747.81;;;25.53;41.30
28008;BME280;15333;50.010;20.020;2023-06-26T09:47:34;98742.34;;;25.53;41.77
28008;BME280;15333;50.010;20.020;2023-06-26T09:50:35;98742.34;;;25.66;41.53
28008;BME280;15333;50.010;20.020;2023-06-26T09:53:37;98750.78;;;25.58;40.92
28008;BME280;15333;50.010;20.020;2023-06-26T09:56:38;98746.78;;;26.44;39.42
28008;BME280;15333;50.010;20.020;2023-06-26T09:59:43;98751.00;;;26.47;38.98
28008;BME280;15333;50.010;20.020;2023-06-26T10:02:46;98741.25;;;26.51;39.83
28008;BME280;15333;50.010;20.020;2023-06-26T10:05:48;98738.50;;;26.89;40.03
28008;BME280;15333;50.010;20.020;2023-06-26T10:08:49;98727.41;;;27.09;39.50
28008;BME280;15333;50.010;20.020;2023-06-26T10:11:56;98730.13;;;26.77;39.58
28008;BME280;15333;50.010;20.020;2023-06-26T10:14:58;98738.38;;;26.39;39.39
28008;BME280;15333;50.010;20.020;2023-06-26T10:18:01;98740.22;;;25.81;39.96
28008;BME280;15333;50.010;20.020;2023-06-26T10:21:03;98727.09;;;25.96;40.00
28008;BME280;15333;50.010;20.020;2023-06-26T10:24:06;98726.72;;;26.44;39.94
28008;BME280;15333;50.010;20.020;2023-06-26T10:27:19;98718.69;;;25.91;39.70
28008;BME280;15333;50.010;20.020;2023-06-26T10:30:25;98714.00;;;26.05;41.25
28008;BME280;15333;50.010;20.020;2023-06-26T10:33:27;98715.50;;;26.52;40.43
28008;BME280;15333;50.010;20.020;2023-06-26T10:36:30;98706.50;;;25.74;43.33
28008;BME280;15333;50.010;20.020;2023-06-26T10:39:48;98708.22;;;25.35;43.82
28008;BME280;15333;50.010;20.020;2023-06-26T10:43:06;98713.69;;;24.96;43.49
28008;BME280;15333;50.010;20.020;2023-06-26T10:46:09;98712.75;;;24.49;45.16
28008;BME280;15333;50.010;20.020;2023-06-26T10:49:12;98714.53;;;25.03;44.69
28008;BME280;15333;50.010;20.020;2023-06-26T10:52:13;98701.88;;;25.55;43.62
28008;BME280;15333;50.010;20.020;2023-06-26T10:55:14;98706.03;;;25.90;43.25
28008;BME280;15333;50.010;20.020;2023-06-26T10:58:39;98699.63;;;26.09;42.99
28008;BME280;15333;50.010;20.020;2023-06-26T11:01:54;98704.06;;;26.10;42.47
28008;BME280;15333;50.010;20.020;2023-06-26T11:04:59;98699.56;;;26.36;41.73
28008;BME280;15333;50.010;20.020;2023-06-26T11:08:10;98697.44;;;27.01;40.95
28008;BME280;15333;50.010;20.020;2023-06-26T11:11:12;98688.78;;;26.66;41.36
28008;BME280;15333;50.010;20.020;2023-06-26T11:14:13;98701.78;;;26.83;40.31
28008;BME280;15333;50.010;20.020;2023-06-26T11:17:14;98692.47;;;26.84;39.78
28008;BME280;15333;50.010;20.020;2023-06-26T11:20:17;98691.75;;;27.27;40.44
28008;BME280;15333;50.010;20.020;2023-06-26T11:23:22;98696.78;;;26.74;40.08
28008;BME280;15333;50.010;20.020;2023-06-26T11:26:26;98695.13;;;26.35;41.24
28008;BME280;15333;50.010;20.020;2023-06-26T11:29:26;98698.63;;;25.97;40.71
28008;BME280;15333;50.010;20.020;2023-06-26T11:32:28;98705.72;;;26.18;41.03
28008;BME280;15333;50.010;20.020;2023-06-26T11:35:29;98698.78;;;26.09;41.82
28008;BME280;15333;50.010;20.020;2023-06-26T11:38:37;98694.91;;;26.23;41.42
28008;BME280;15333;50.010;20.020;2023-06-26T11:41:39;98691.50;;;26.72;40.24
28008;BME280;15333;50.010;20.020;2023-06-26T11:44:44;98689.38;;;27.06;39.40
28008;BME280;15333;50.010;20.020;2023-06-26T11:47:45;98686.75;;;26.93;38.86
28008;BME280;15333;50.010;20.020;2023-06-26T11:50:50;98679.03;;;26.76;38.36
28008;BME280;15333;50.010;20.020;2023-06-26T11:53:51;98684.56;;;26.70;37.69
28008;BME280;15333;50.010;20.020;2023-06-26T11:56:58;98692.56;;;25.82;38.62
28008;BME280;15333;50.010;20.020;2023-06-26T12:00:10;98684.53;;;25.81;38.94
28008;BME280;15333;50.010;20.020;2023-06-26T12:03:12;98684.22;;;25.05;40.22
28008;BME280;15333;50.010;20.020;2023-06-26T12:06:13;98685.47;;;25.42;40.07
28008;BME280;15333;50.010;20.020;2023-06-26T12:09:15;98676.50;;;25.79;39.38
28008;BME280;15333;50.010;20.020;2023-06-26T12:12:18;98675.53;;;26.18;38.35
28008;BME280;15333;50.010;20.020;2023-06-26T12:15:19;98674.34;;;25.94;38.64
28008;BME280;15333;50.010;20.020;2023-06-26T12:18:20;98671.66;;;26.39;37.26
28008;BME280;15333;50.010;20.020;2023-06-26T12:21:46;98665.88;;;26.02;38.69
28008;BME280;15333;50.010;20.020;2023-06-26T12:24:47;98671.84;;;25.93;40.67
28008;BME280;15333;50.010;20.020;2023-06-26T12:27:49;98665.00;;;26.08;39.26
28008;BME280;15333;50.010;20.020;2023-06-26T12:31:15;98655.63;;;26.36;38.04
28008;BME280;15333;50.010;20.020;2023-06-26T12:34:19;98656.41;;;26.49;38.59
28008;BME280;15333;50.010;20.020;2023-06-26T12:37:20;98662.63;;;26.63;38.02
28008;BME280;15333;50.010;20.020;2023-06-26T12:40:22;98659.47;;;26.28;37.89
28008;BME280;15333;50.010;20.020;2023-06-26T12:43:23;98645.44;;;27.06;36.87
28008;BME280;15333;50.010;20.020;2023-06-26T12:46:34;98642.34;;;27.63;36.18
28008;BME280;15333;50.010;20.020;2023-06-26T12:49:41;98647.59;;;27.83;36.75
28008;BME280;15333;50.010;20.020;2023-06-26T12:52:43;98636.66;;;27.58;36.10
28008;BME280;15333;50.010;20.020;2023-06-26T12:55:44;98636.31;;;27.30;37.52
28008;BME280;15333;50.010;20.020;2023-06-26T12:58:45;98634.63;;;27.54;37.72
28008;BME280;15333;50.010;20.020;2023-06-26T13:01:46;98633.22;;;26.70;38.31
28008;BME280;15333;50.010;20.020;2023-06-26T13:04:47;98632.56;;;27.67;36.27
28008;BME280;15333;50.010;20.020;2023-06-26T13:07:48;98632.88;;;27.78;36.08
28008;BME280;15333;50.010;20.020;2023-06-26T13:10:49;98628.56;;;27.82;35.51
28008;BME280;15333;50.010;20.020;2023-06-26T13:13:50;98623.84;;;27.52;36.33
28008;BME280;15333;50.010;20.020;2023-06-26T13:16:51;98622.13;;;27.33;36.63
28008;BME280;15333;50.010;20.020;2023-06-26T13:19:52;98627.69;;;27.02;36.68
28008;BME280;15333;50.010;20.020;2023-06-26T13:22:54;98613.59;;;26.98;37.28
28008;BME280;15333;50.010;20.020;2023-06-26T13:25:55;98617.81;;;27.19;37.17
28008;BME280;15333;50.010;20.020;2023-06-26T13:28:56;98605.44;;;26.85;37.63
28008;BME280;15333;50.010;20.020;2023-06-26T13:31:57;98609.16;;;27.58;36.54
28008;BME280;15333;50.010;20.020;2023-06-26T13:34:58;98609.28;;;27.27;37.46
28008;BME280;15333;50.010;20.020;2023-06-26T13:37:59;98605.22;;;27.54;37.65
28008;BME280;15333;50.010;20.020;2023-06-26T13:41:00;98607.50;;;27.76;36.96
28008;BME280;15333;50.010;20.020;2023-06-26T13:44:01;98594.00;;;28.04;36.16
28008;BME280;15333;50.010;20.020;2023-06-26T13:47:02;98599.38;;;27.99;36.91
28008;BME280;15333;50.010;20.020;2023-06-26T13:50:04;98599.22;;;26.71;38.29
28008;BME280;15333;50.010;20.020;2023-06-26T13:53:07;98593.88;;;27.01;36.92
28008;BME280;15333;50.010;20.020;2023-06-26T13:56:07;98592.94;;;27.14;38.34
28008;BME280;15333;50.010;20.020;2023-06-26T13:59:09;98588.47;;;26.95;38.45
28008;BME280;15333;50.010;20.020;2023-06-26T14:02:10;98586.81;;;26.87;40.09
28008;BME280;15333;50.010;20.020;2023-06-26T14:05:11;98581.97;;;27.07;38.93
28008;BME280;15333;50.010;20.020;2023-06-26T14:08:12;98570.72;;;27.52;38.75
28008;BME280;15333;50.010;20.020;2023-06-26T14:11:13;98568.25;;;28.28;37.89
28008;BME280;15333;50.010;20.020;2023-06-26T14:14:16;98565.22;;;27.88;37.41
28008;BME280;15333;50.010;20.020;2023-06-26T14:17:17;98563.38;;;28.30;36.71
28008;BME280;15333;50.010;20.020;2023-06-26T14:20:18;98573.09;;;28.44;36.01
28008;BME280;15333;50.010;20.020;2023-06-26T14:23:21;98564.31;;;28.24;35.84
28008;BME280;15333;50.010;20.020;2023-06-26T14:26:22;98566.94;;;27.53;36.69
28008;BME280;15333;50.010;20.020;2023-06-26T14:29:23;98559.34;;;27.30;37.25
28008;BME280;15333;50.010;20.020;2023-06-26T14:32:24;98554.16;;;27.40;36.77
28008;BME280;15333;50.010;20.020;2023-06-26T14:35:26;98557.97;;;27.39;37.19
28008;BME280;15333;50.010;20.020;2023-06-26T14:38:26;98543.28;;;27.82;36.72
28008;BME280;15333;50.010;20.020;2023-06-26T14:41:29;98541.59;;;27.99;36.34
28008;BME280;15333;50.010;20.020;2023-06-26T14:44:30;98534.59;;;28.15;36.44
28008;BME280;15333;50.010;20.020;2023-06-26T14:47:31;98541.84;;;28.27;34.82
28008;BME280;15333;50.010;20.020;2023-06-26T14:50:32;98531.84;;;27.66;37.40
28008;BME280;15333;50.010;20.020;2023-06-26T14:53:33;98531.34;;;27.88;36.65
28008;BME280;15333;50.010;20.020;2023-06-26T14:56:33;98524.41;;;28.15;37.26
28008;BME280;15333;50.010;20.020;2023-06-26T14:59:35;98525.91;;;28.29;37.04
28008;BME280;15333;50.010;20.020;2023-06-26T15:02:36;98521.53;;;28.63;36.69
28008;BME280;15333;50.010;20.020;2023-06-26T15:05:37;98517.19;;;28.14;34.71
28008;BME280;15333;50.010;20.020;2023-06-26T15:08:38;98515.09;;;28.81;34.89
28008;BME280;15333;50.010;20.020;2023-06-26T15:11:39;98516.16;;;28.15;35.94
28008;BME280;15333;50.010;20.020;2023-06-26T15:14:40;98509.88;;;27.96;35.25
28008;BME280;15333;50.010;20.020;2023-06-26T15:17:41;98516.59;;;27.71;37.20
28008;BME280;15333;50.010;20.020;2023-06-26T15:20:42;98509.59;;;28.16;36.53
28008;BME280;15333;50.010;20.020;2023-06-26T15:23:45;98502.41;;;28.15;37.51
28008;BME280;15333;50.010;20.020;2023-06-26T15:26:46;98500.88;;;27.89;36.92
28008;BME280;15333;50.010;20.020;2023-06-26T15:29:47;98505.31;;;28.20;35.58
28008;BME280;15333;50.010;20.020;2023-06-26T15:32:48;98500.06;;;28.00;35.92
28008;BME280;15333;50.010;20.020;2023-06-26T15:35:49;98494.53;;;28.42;35.90
28008;BME280;15333;50.010;20.020;2023-06-26T15:38:50;98499.50;;;28.10;35.54
28008;BME280;15333;50.010;20.020;2023-06-26T15:41:51;98497.00;;;27.79;36.80
28008;BME280;15333;50.010;20.020;2023-06-26T15:44:52;98492.97;;;27.93;37.53
28008;BME280;15333;50.010;20.020;2023-06-26T15:47:53;98487.91;;;27.78;38.08
28008;BME280;15333;50.010;20.020;2023-06-26T15:50:54;98483.91;;;27.44;38.57
28008;BME280;15333;50.010;20.020;2023-06-26T15:53:55;98489.72;;;27.54;38.72
28008;BME280;15333;50.010;20.020;2023-06-26T15:56:57;98484.34;;;27.78;37.52
28008;BME280;15333;50.010;20.020;2023-06-26T15:59:58;98490.00;;;28.24;36.20
28008;BME280;15333;50.010;20.020;2023-06-26T16:03:00;98479.09;;;28.18;36.34
28008;BME280;15333;50.010;20.020;2023-06-26T16:06:02;98475.28;;;28.42;35.71
28008;BME280;15333;50.010;20.020;2023-06-26T16:09:03;98481.28;;;28.51;36.09
28008;BME280;15333;50.010;20.020;2023-06-26T16:12:04;98479.53;;;28.15;36.38
28008;BME280;15333;50.010;20.020;2023-06-26T16:15:05;98470.59;;;27.89;37.21
28008;BME280;15333;50.010;20.020;2023-06-26T16:18:06;98467.41;;;28.04;35.95